Time,TemperatureF,DewpointF,PressureIn,WindDirection,WindDirectionDegrees,WindSpeedMPH,WindSpeedGustMPH,Humidity,HourlyPrecipIn,Conditions,Clouds,dailyrainin,SoftwareType,DateUTC
2013-04-27 00:00:00,53.8,43.9,30.38,SW,226,0.0,0.0,69,0.00,,OVC055,0.00,VWS V14.01,2013-04-27 04:00:00,
2013-04-27 00:01:00,53.8,43.5,30.38,SW,226,0.0,0.0,68,0.00,,OVC055,0.00,VWS V14.01,2013-04-27 04:01:00,
2013-04-27 00:06:00,53.8,44.6,30.38,SW,226,0.0,0.0,71,0.00,,OVC055,0.00,VWS V14.01,2013-04-27 04:06:00,
2013-04-27 00:11:00,53.7,43.8,30.38,SW,226,0.0,0.0,69,0.00,,OVC055,0.00,VWS V14.01,2013-04-27 04:11:00,
2013-04-27 00:16:00,53.7,43.8,30.38,SW,226,0.0,0.0,69,0.00,,OVC055,0.00,VWS V14.01,2013-04-27 04:16:00,
2013-04-27 00:21:00,53.6,43.7,30.39,SW,226,0.0,0.0,69,0.00,,OVC055,0.00,VWS V14.01,2013-04-27 04:21:00,
2013-04-27 00:26:00,53.5,44.3,30.39,SW,226,0.0,0.0,71,0.00,,OVC055,0.00,VWS V14.01,2013-04-27 04:26:00,
2013-04-27 00:30:00,53.5,44.3,30.39,SW,226,0.0,0.0,71,0.00,,OVC055,0.00,VWS V14.01,2013-04-27 04:30:00,
2013-04-27 00:31:00,53.4,44.2,30.39,SW,226,0.0,0.0,71,0.00,,OVC055,0.00,VWS V14.01,2013-04-27 04:31:00,
2013-04-27 00:36:00,53.3,43.8,30.39,SW,226,0.0,0.0,70,0.00,,OVC055,0.00,VWS V14.01,2013-04-27 04:36:00,
2013-04-27 00:41:00,53.4,43.5,30.40,SW,226,0.0,0.0,69,0.00,,OVC055,0.00,VWS V14.01,2013-04-27 04:41:00,
2013-04-27 00:46:00,53.4,45.7,30.40,SW,226,0.0,0.0,75,0.00,,OVC055,0.00,VWS V14.01,2013-04-27 04:46:00,
2013-04-27 00:51:00,53.4,45.7,30.40,SW,226,0.0,0.0,75,0.00,,OVC055,0.00,VWS V14.01,2013-04-27 04:51:00,
2013-04-27 00:56:00,53.3,45.2,30.40,SW,226,0.0,0.0,74,0.00,,OVC055,0.00,VWS V14.01,2013-04-27 04:56:00,
2013-04-27 01:00:00,53.2,45.1,30.39,SW,226,0.0,0.0,74,0.00,,OVC055,0.00,VWS V14.01,2013-04-27 05:00:00,
2013-04-27 01:01:00,53.2,45.1,30.39,SW,226,0.0,0.0,74,0.00,,OVC055,0.00,VWS V14.01,2013-04-27 05:01:00,
2013-04-27 01:06:00,53.0,45.3,30.39,SW,226,0.0,1.0,75,0.00,,OVC055,0.00,VWS V14.01,2013-04-27 05:06:00,
2013-04-27 01:11:00,53.0,44.6,30.39,SW,226,0.0,1.0,73,0.00,,OVC055,0.00,VWS V14.01,2013-04-27 05:11:00,
2013-04-27 01:16:00,53.0,45.0,30.38,SW,226,0.0,1.0,74,0.00,,OVC055,0.00,VWS V14.01,2013-04-27 05:16:00,
2013-04-27 01:21:00,53.0,45.0,30.38,SW,226,0.0,1.0,74,0.00,,OVC055,0.00,VWS V14.01,2013-04-27 05:21:00,
2013-04-27 01:26:00,53.0,45.0,30.37,SW,226,0.0,1.0,74,0.00,,OVC055,0.00,VWS V14.01,2013-04-27 05:26:00,
2013-04-27 01:30:00,53.0,45.0,30.37,SW,226,0.0,1.0,74,0.00,,OVC055,0.00,VWS V14.01,2013-04-27 05:30:00,
2013-04-27 01:31:00,53.0,45.0,30.37,SW,226,0.0,0.0,74,0.00,,OVC055,0.00,VWS V14.01,2013-04-27 05:31:00,
2013-04-27 01:36:00,52.8,44.8,30.38,SW,226,0.0,0.0,74,0.00,,OVC055,0.00,VWS V14.01,2013-04-27 05:36:00,
2013-04-27 01:41:00,52.8,45.1,30.38,SW,226,0.0,1.0,75,0.00,,OVC055,0.00,VWS V14.01,2013-04-27 05:41:00,
2013-04-27 01:46:00,52.8,45.5,30.38,SW,226,0.0,1.0,76,0.00,,OVC055,0.00,VWS V14.01,2013-04-27 05:46:00,
2013-04-27 01:51:00,52.8,45.1,30.38,SW,226,0.0,1.0,75,0.00,,OVC055,0.00,VWS V14.01,2013-04-27 05:51:00,
2013-04-27 01:56:00,52.8,44.8,30.37,SW,226,0.0,2.0,74,0.00,,OVC055,0.00,VWS V14.01,2013-04-27 05:56:00,
2013-04-27 02:00:00,52.9,45.9,30.37,SW,226,0.0,2.0,77,0.00,,OVC055,0.00,VWS V14.01,2013-04-27 06:00:00,
2013-04-27 02:01:00,52.9,46.2,30.37,SW,226,0.0,1.0,78,0.00,,OVC055,0.00,VWS V14.01,2013-04-27 06:01:00,
2013-04-27 02:05:00,52.9,46.2,30.37,SW,226,0.0,1.0,78,0.00,,OVC055,0.00,VWS V14.01,2013-04-27 06:05:00,
2013-04-27 02:10:00,52.9,46.2,30.37,SW,226,1.0,2.0,78,0.00,,OVC055,0.00,VWS V14.01,2013-04-27 06:10:00,
2013-04-27 02:15:00,52.8,46.1,30.37,SW,226,0.0,2.0,78,0.00,,OVC055,0.00,VWS V14.01,2013-04-27 06:15:00,
2013-04-27 02:21:00,52.7,46.0,30.37,SW,226,1.0,2.0,78,0.00,,OVC055,0.00,VWS V14.01,2013-04-27 06:21:00,
2013-04-27 02:26:00,52.6,46.0,30.37,SW,226,1.0,2.0,78,0.00,,OVC055,0.00,VWS V14.01,2013-04-27 06:26:00,
2013-04-27 02:30:00,52.5,44.8,30.37,SW,219,0.0,3.0,75,0.00,,OVC055,0.00,VWS V14.01,2013-04-27 06:30:00,
2013-04-27 02:31:00,52.5,45.2,30.37,SW,219,0.0,0.0,76,0.00,,OVC055,0.00,VWS V14.01,2013-04-27 06:31:00,
2013-04-27 02:36:00,52.5,45.5,30.37,SW,219,0.0,2.0,77,0.00,,OVC055,0.00,VWS V14.01,2013-04-27 06:36:00,
2013-04-27 02:40:00,52.5,45.8,30.37,SW,219,0.0,2.0,78,0.00,,OVC055,0.00,VWS V14.01,2013-04-27 06:40:00,
2013-04-27 02:45:00,52.5,45.8,30.37,SW,219,0.0,2.0,78,0.00,,OVC055,0.00,VWS V14.01,2013-04-27 06:45:00,
2013-04-27 02:50:00,52.4,46.4,30.37,SW,219,0.0,2.0,80,0.00,,OVC055,0.00,VWS V14.01,2013-04-27 06:50:00,
2013-04-27 02:55:00,52.3,46.7,30.37,SW,219,0.0,2.0,81,0.00,,OVC055,0.00,VWS V14.01,2013-04-27 06:55:00,
2013-04-27 03:00:00,52.1,45.8,30.37,SW,219,0.0,0.0,79,0.00,,OVC055,0.00,VWS V14.01,2013-04-27 07:00:00,
2013-04-27 03:05:00,52.0,46.4,30.37,SW,219,0.0,1.0,81,0.00,,OVC055,0.00,VWS V14.01,2013-04-27 07:05:00,
2013-04-27 03:10:00,51.9,46.3,30.36,SW,219,0.0,1.0,81,0.00,,OVC055,0.00,VWS V14.01,2013-04-27 07:10:00,
2013-04-27 03:15:00,51.8,46.2,30.36,SW,219,0.0,1.0,81,0.00,,OVC055,0.00,VWS V14.01,2013-04-27 07:15:00,
2013-04-27 03:20:00,51.6,46.9,30.36,SW,219,0.0,1.0,84,0.00,,OVC055,0.00,VWS V14.01,2013-04-27 07:20:00,
2013-04-27 03:25:00,51.3,46.6,30.36,SW,219,0.0,1.0,84,0.00,,OVC055,0.00,VWS V14.01,2013-04-27 07:25:00,
2013-04-27 03:30:00,51.0,47.0,30.36,SW,219,0.0,0.0,86,0.00,,OVC055,0.00,VWS V14.01,2013-04-27 07:30:00,
2013-04-27 03:35:00,50.8,47.4,30.35,SW,219,0.0,1.0,88,0.00,,OVC055,0.00,VWS V14.01,2013-04-27 07:35:00,
2013-04-27 03:40:00,50.7,47.6,30.35,SW,219,0.0,1.0,89,0.00,,OVC055,0.00,VWS V14.01,2013-04-27 07:40:00,
2013-04-27 03:45:00,50.6,47.8,30.35,SW,219,0.0,1.0,90,0.00,,OVC055,0.00,VWS V14.01,2013-04-27 07:45:00,
2013-04-27 03:50:00,50.5,47.7,30.35,SW,219,0.0,1.0,90,0.00,,OVC055,0.00,VWS V14.01,2013-04-27 07:50:00,
2013-04-27 03:55:00,50.4,47.9,30.35,SW,219,0.0,1.0,91,0.00,,OVC055,0.00,VWS V14.01,2013-04-27 07:55:00,
2013-04-27 04:00:00,50.3,47.5,30.35,SW,219,0.0,0.0,90,0.00,,OVC055,0.00,VWS V14.01,2013-04-27 08:00:00,
2013-04-27 04:05:00,50.3,47.5,30.35,SW,219,0.0,0.0,90,0.00,,OVC055,0.00,VWS V14.01,2013-04-27 08:05:00,
2013-04-27 04:10:00,50.2,47.4,30.34,SW,219,0.0,1.0,90,0.00,,OVC055,0.00,VWS V14.01,2013-04-27 08:10:00,
2013-04-27 04:15:00,50.2,47.4,30.34,SW,219,0.0,1.0,90,0.00,,OVC055,0.00,VWS V14.01,2013-04-27 08:15:00,
2013-04-27 04:20:00,50.3,48.1,30.34,SW,219,0.0,1.0,92,0.00,,OVC055,0.00,VWS V14.01,2013-04-27 08:20:00,
2013-04-27 04:25:00,50.3,48.1,30.33,SW,219,0.0,1.0,92,0.00,,OVC055,0.00,VWS V14.01,2013-04-27 08:25:00,
2013-04-27 04:30:00,50.3,47.8,30.33,SW,219,0.0,0.0,91,0.00,,OVC055,0.00,VWS V14.01,2013-04-27 08:30:00,
2013-04-27 04:35:00,50.3,48.1,30.33,SW,219,0.0,0.0,92,0.00,,OVC055,0.00,VWS V14.01,2013-04-27 08:35:00,
2013-04-27 04:40:00,50.2,47.7,30.33,SW,219,0.0,0.0,91,0.00,,OVC055,0.00,VWS V14.01,2013-04-27 08:40:00,
2013-04-27 04:45:00,50.2,47.7,30.33,SW,219,0.0,0.0,91,0.00,,OVC055,0.00,VWS V14.01,2013-04-27 08:45:00,
2013-04-27 04:50:00,50.2,47.7,30.33,SW,219,0.0,0.0,91,0.00,,OVC055,0.00,VWS V14.01,2013-04-27 08:50:00,
2013-04-27 04:55:00,50.2,47.7,30.33,SW,219,0.0,0.0,91,0.00,,OVC055,0.00,VWS V14.01,2013-04-27 08:55:00,
2013-04-27 05:00:00,50.1,47.6,30.33,SW,219,0.0,0.0,91,0.00,,OVC055,0.00,VWS V14.01,2013-04-27 09:00:00,
2013-04-27 05:05:00,50.2,47.7,30.33,SW,219,0.0,1.0,91,0.00,,OVC055,0.00,VWS V14.01,2013-04-27 09:05:00,
2013-04-27 05:10:00,50.3,48.1,30.33,SW,219,0.0,1.0,92,0.00,,OVC055,0.00,VWS V14.01,2013-04-27 09:10:00,
2013-04-27 05:15:00,50.4,48.2,30.34,SW,219,0.0,1.0,92,0.00,,OVC055,0.00,VWS V14.01,2013-04-27 09:15:00,
2013-04-27 05:20:00,50.4,47.9,30.33,SW,219,0.0,1.0,91,0.00,,OVC055,0.00,VWS V14.01,2013-04-27 09:20:00,
2013-04-27 05:25:00,50.4,47.9,30.33,SW,219,0.0,1.0,91,0.00,,OVC055,0.00,VWS V14.01,2013-04-27 09:25:00,
2013-04-27 05:30:00,50.4,47.6,30.33,SW,219,0.0,0.0,90,0.00,,OVC055,0.00,VWS V14.01,2013-04-27 09:30:00,
2013-04-27 05:35:00,50.4,47.9,30.33,SW,219,0.0,0.0,91,0.00,,OVC055,0.00,VWS V14.01,2013-04-27 09:35:00,
2013-04-27 05:40:00,50.3,48.1,30.33,SW,219,0.0,0.0,92,0.00,,OVC055,0.00,VWS V14.01,2013-04-27 09:40:00,
2013-04-27 05:45:00,50.2,48.0,30.33,SW,219,0.0,0.0,92,0.01,,OVC055,0.01,VWS V14.01,2013-04-27 09:45:00,
2013-04-27 05:50:00,50.1,48.2,30.33,SW,219,0.0,0.0,93,0.01,,OVC055,0.01,VWS V14.01,2013-04-27 09:50:00,
2013-04-27 05:55:00,49.9,48.2,30.33,SW,219,0.0,0.0,94,0.01,,OVC055,0.01,VWS V14.01,2013-04-27 09:55:00,
2013-04-27 06:00:00,49.8,48.4,30.33,SW,219,0.0,0.0,95,0.01,,OVC055,0.01,VWS V14.01,2013-04-27 10:00:00,
2013-04-27 06:05:00,49.7,48.0,30.33,SW,219,0.0,0.0,94,0.01,,OVC055,0.01,VWS V14.01,2013-04-27 10:05:00,
2013-04-27 06:10:00,49.6,48.2,30.34,SW,219,0.0,0.0,95,0.01,,OVC055,0.01,VWS V14.01,2013-04-27 10:10:00,
2013-04-27 06:15:00,49.5,48.1,30.34,SW,219,0.0,0.0,95,0.01,,OVC055,0.01,VWS V14.01,2013-04-27 10:15:00,
2013-04-27 06:20:00,49.4,48.0,30.34,SW,219,0.0,0.0,95,0.01,,OVC055,0.01,VWS V14.01,2013-04-27 10:20:00,
2013-04-27 06:25:00,49.4,48.3,30.34,SW,219,0.0,0.0,96,0.01,,OVC055,0.01,VWS V14.01,2013-04-27 10:25:00,
2013-04-27 06:30:00,49.4,48.3,30.34,SW,219,0.0,0.0,96,0.01,,OVC055,0.01,VWS V14.01,2013-04-27 10:30:00,
2013-04-27 06:35:00,49.4,48.3,30.34,SW,219,0.0,0.0,96,0.02,,OVC055,0.02,VWS V14.01,2013-04-27 10:35:00,
2013-04-27 06:40:00,49.4,48.3,30.34,SW,219,0.0,0.0,96,0.02,,OVC055,0.02,VWS V14.01,2013-04-27 10:40:00,
2013-04-27 06:45:00,49.3,48.2,30.34,SW,219,0.0,0.0,96,0.02,,OVC055,0.02,VWS V14.01,2013-04-27 10:45:00,
2013-04-27 06:50:00,49.3,48.5,30.34,SW,219,0.0,0.0,97,0.02,,OVC055,0.02,VWS V14.01,2013-04-27 10:50:00,
2013-04-27 06:55:00,49.3,48.5,30.34,SW,219,0.0,0.0,97,0.02,,OVC055,0.02,VWS V14.01,2013-04-27 10:55:00,
2013-04-27 07:00:00,49.3,48.5,30.33,SW,219,0.0,0.0,97,0.01,,OVC055,0.02,VWS V14.01,2013-04-27 11:00:00,
2013-04-27 07:05:00,49.3,48.5,30.33,SW,219,0.0,0.0,97,0.01,,OVC055,0.02,VWS V14.01,2013-04-27 11:05:00,
2013-04-27 07:10:00,49.3,48.5,30.33,SW,219,0.0,0.0,97,0.01,,OVC055,0.02,VWS V14.01,2013-04-27 11:10:00,
2013-04-27 07:15:00,49.4,48.6,30.33,SW,219,0.0,0.0,97,0.01,,OVC055,0.02,VWS V14.01,2013-04-27 11:15:00,
2013-04-27 07:20:00,49.4,48.9,30.33,SW,219,0.0,1.0,98,0.01,,OVC055,0.02,VWS V14.01,2013-04-27 11:20:00,
2013-04-27 07:25:00,49.4,48.9,30.33,SW,219,0.0,1.0,98,0.01,,OVC055,0.02,VWS V14.01,2013-04-27 11:25:00,
2013-04-27 07:30:00,49.4,48.9,30.33,SW,219,0.0,0.0,98,0.01,,OVC055,0.02,VWS V14.01,2013-04-27 11:30:00,
2013-04-27 07:35:00,49.4,48.9,30.33,SW,219,0.0,0.0,98,0.01,,OVC055,0.02,VWS V14.01,2013-04-27 11:35:00,
2013-04-27 07:40:00,49.5,49.0,30.33,SW,219,0.0,0.0,98,0.01,,OVC055,0.02,VWS V14.01,2013-04-27 11:40:00,
2013-04-27 07:45:00,49.5,49.0,30.33,SW,219,0.0,0.0,98,0.01,,OVC055,0.02,VWS V14.01,2013-04-27 11:45:00,
2013-04-27 07:50:00,49.5,49.0,30.33,SW,219,0.0,0.0,98,0.01,,OVC055,0.02,VWS V14.01,2013-04-27 11:50:00,
2013-04-27 07:55:00,49.5,49.0,30.33,SW,219,0.0,0.0,98,0.01,,OVC055,0.02,VWS V14.01,2013-04-27 11:55:00,
2013-04-27 08:00:00,49.6,49.1,30.33,SW,219,0.0,0.0,98,0.00,,OVC055,0.02,VWS V14.01,2013-04-27 12:00:00,
2013-04-27 08:05:00,49.6,49.1,30.32,SW,219,0.0,0.0,98,0.00,,OVC055,0.02,VWS V14.01,2013-04-27 12:05:00,
2013-04-27 08:10:00,49.5,49.0,30.33,SW,219,1.0,2.0,98,0.00,,OVC055,0.02,VWS V14.01,2013-04-27 12:10:00,
2013-04-27 08:15:00,49.6,49.1,30.34,NW,325,2.0,3.0,98,0.00,,OVC055,0.02,VWS V14.01,2013-04-27 12:15:00,
2013-04-27 08:20:00,49.8,49.3,30.35,NNW,340,1.0,4.0,98,0.00,,OVC055,0.02,VWS V14.01,2013-04-27 12:20:00,
2013-04-27 08:25:00,49.9,49.4,30.34,NNW,340,1.0,4.0,98,0.00,,OVC055,0.02,VWS V14.01,2013-04-27 12:25:00,
2013-04-27 08:30:00,50.1,49.6,30.34,NNW,340,0.0,1.0,98,0.00,,OVC055,0.02,VWS V14.01,2013-04-27 12:30:00,
2013-04-27 08:35:00,50.1,49.6,30.35,NNW,340,0.0,1.0,98,0.00,,OVC055,0.02,VWS V14.01,2013-04-27 12:35:00,
2013-04-27 08:40:00,50.1,49.6,30.34,NNW,340,0.0,1.0,98,0.00,,OVC055,0.02,VWS V14.01,2013-04-27 12:40:00,
2013-04-27 08:45:00,50.1,49.6,30.34,NNW,347,0.0,1.0,98,0.00,,OVC055,0.02,VWS V14.01,2013-04-27 12:45:00,
2013-04-27 08:50:00,50.2,49.7,30.34,NNW,347,0.0,1.0,98,0.00,,OVC055,0.02,VWS V14.01,2013-04-27 12:50:00,
2013-04-27 08:55:00,50.2,49.7,30.34,NNW,347,0.0,1.0,98,0.00,,OVC055,0.02,VWS V14.01,2013-04-27 12:55:00,
2013-04-27 09:00:00,50.3,49.8,30.34,NNW,347,0.0,0.0,98,0.00,,OVC055,0.02,VWS V14.01,2013-04-27 13:00:00,
2013-04-27 09:05:00,50.4,49.9,30.34,NNW,347,0.0,0.0,98,0.00,,OVC055,0.02,VWS V14.01,2013-04-27 13:05:00,
2013-04-27 09:10:00,50.5,50.2,30.34,NNW,347,0.0,0.0,99,0.00,,OVC055,0.02,VWS V14.01,2013-04-27 13:10:00,
2013-04-27 09:15:00,50.6,50.1,30.34,NNW,347,0.0,0.0,98,0.00,,OVC055,0.02,VWS V14.01,2013-04-27 13:15:00,
2013-04-27 09:20:00,50.6,50.1,30.35,NNW,347,0.0,0.0,98,0.00,,OVC055,0.02,VWS V14.01,2013-04-27 13:20:00,
2013-04-27 09:25:00,50.7,50.2,30.34,NNW,347,0.0,0.0,98,0.00,,OVC055,0.02,VWS V14.01,2013-04-27 13:25:00,
2013-04-27 09:30:00,50.8,50.3,30.34,NNW,347,0.0,0.0,98,0.00,,OVC055,0.02,VWS V14.01,2013-04-27 13:30:00,
2013-04-27 09:35:00,50.9,50.4,30.34,NNW,347,0.0,0.0,98,0.00,,OVC055,0.02,VWS V14.01,2013-04-27 13:35:00,
2013-04-27 09:39:00,51.1,50.6,30.34,NNW,347,0.0,0.0,98,0.00,,OVC055,0.02,VWS V14.01,2013-04-27 13:39:00,
2013-04-27 09:48:00,51.6,50.8,30.34,NNW,347,0.0,2.0,97,0.00,,OVC055,0.02,VWS V14.01,2013-04-27 13:48:00,
2013-04-27 09:53:00,51.8,51.0,30.34,NNE,24,0.0,2.0,97,0.00,,OVC055,0.02,VWS V14.01,2013-04-27 13:53:00,
2013-04-27 09:58:00,52.0,50.6,30.34,NNE,24,0.0,2.0,95,0.00,,OVC055,0.02,VWS V14.01,2013-04-27 13:58:00,
2013-04-27 10:00:00,52.0,50.6,30.34,NNE,24,0.0,2.0,95,0.00,,OVC055,0.02,VWS V14.01,2013-04-27 14:00:00,
2013-04-27 10:03:00,52.2,50.5,30.34,NNE,24,0.0,1.0,94,0.00,,OVC055,0.02,VWS V14.01,2013-04-27 14:03:00,
2013-04-27 10:08:00,52.2,49.7,30.34,NNE,24,0.0,1.0,91,0.00,,OVC055,0.02,VWS V14.01,2013-04-27 14:08:00,
2013-04-27 10:13:00,52.3,50.0,30.34,NNE,24,0.0,1.0,92,0.00,,OVC055,0.02,VWS V14.01,2013-04-27 14:13:00,
2013-04-27 10:18:00,52.4,50.4,30.34,NNE,24,0.0,1.0,93,0.00,,OVC055,0.02,VWS V14.01,2013-04-27 14:18:00,
2013-04-27 10:23:00,52.5,50.0,30.34,NNE,24,0.0,1.0,91,0.00,,OVC055,0.02,VWS V14.01,2013-04-27 14:23:00,
2013-04-27 10:28:00,52.6,50.0,30.33,NNE,24,0.0,1.0,91,0.00,,OVC055,0.02,VWS V14.01,2013-04-27 14:28:00,
2013-04-27 10:30:00,52.6,50.0,30.33,NNE,24,0.0,1.0,91,0.00,,OVC055,0.02,VWS V14.01,2013-04-27 14:30:00,
2013-04-27 10:33:00,52.8,50.5,30.34,NNE,24,0.0,2.0,92,0.00,,OVC055,0.02,VWS V14.01,2013-04-27 14:33:00,
2013-04-27 10:38:00,52.9,50.3,30.34,NNE,24,0.0,2.0,91,0.00,,OVC055,0.02,VWS V14.01,2013-04-27 14:38:00,
2013-04-27 10:43:00,52.9,50.6,30.34,NNE,24,1.0,2.0,92,0.00,,OVC055,0.02,VWS V14.01,2013-04-27 14:43:00,
2013-04-27 10:48:00,53.0,50.7,30.33,NNE,24,1.0,2.0,92,0.00,,OVC055,0.02,VWS V14.01,2013-04-27 14:48:00,
2013-04-27 10:53:00,53.4,51.1,30.33,NNE,24,0.0,2.0,92,0.00,,OVC055,0.02,VWS V14.01,2013-04-27 14:53:00,
2013-04-27 10:58:00,53.9,51.0,30.34,NNE,24,1.0,2.0,90,0.00,,OVC055,0.02,VWS V14.01,2013-04-27 14:58:00,
2013-04-27 11:00:00,53.9,51.0,30.34,NNE,24,1.0,2.0,90,0.00,,OVC055,0.02,VWS V14.01,2013-04-27 15:00:00,
2013-04-27 11:03:00,54.1,50.6,30.34,NNE,24,1.0,2.0,88,0.00,,OVC055,0.02,VWS V14.01,2013-04-27 15:03:00,
2013-04-27 11:08:00,54.2,50.4,30.34,NE,44,0.0,3.0,87,0.00,,OVC055,0.02,VWS V14.01,2013-04-27 15:08:00,
2013-04-27 11:13:00,54.1,50.0,30.34,NE,44,1.0,3.0,86,0.00,,OVC055,0.02,VWS V14.01,2013-04-27 15:13:00,
2013-04-27 11:18:00,54.1,50.3,30.34,NE,44,1.0,3.0,87,0.00,,OVC055,0.02,VWS V14.01,2013-04-27 15:18:00,
2013-04-27 11:23:00,54.3,49.9,30.34,NE,44,0.0,3.0,85,0.00,,OVC055,0.02,VWS V14.01,2013-04-27 15:23:00,
2013-04-27 11:28:00,54.4,50.3,30.34,NE,44,0.0,3.0,86,0.00,,OVC055,0.02,VWS V14.01,2013-04-27 15:28:00,
2013-04-27 11:30:00,54.4,50.3,30.34,NE,44,0.0,3.0,86,0.00,,OVC055,0.02,VWS V14.01,2013-04-27 15:30:00,
2013-04-27 11:33:00,54.5,50.1,30.34,NE,44,0.0,1.0,85,0.00,,OVC055,0.02,VWS V14.01,2013-04-27 15:33:00,
2013-04-27 11:38:00,54.6,50.8,30.34,NE,44,0.0,1.0,87,0.00,,OVC055,0.02,VWS V14.01,2013-04-27 15:38:00,
2013-04-27 11:43:00,54.9,51.4,30.34,NE,44,0.0,1.0,88,0.00,,OVC055,0.02,VWS V14.01,2013-04-27 15:43:00,
2013-04-27 11:48:00,55.0,50.9,30.34,NE,44,0.0,2.0,86,0.00,,OVC055,0.02,VWS V14.01,2013-04-27 15:48:00,
2013-04-27 11:53:00,55.1,51.3,30.34,NE,44,0.0,2.0,87,0.00,,OVC055,0.02,VWS V14.01,2013-04-27 15:53:00,
2013-04-27 11:58:00,55.1,51.0,30.34,NE,44,0.0,2.0,86,0.00,,OVC055,0.02,VWS V14.01,2013-04-27 15:58:00,
2013-04-27 12:00:00,55.1,51.0,30.34,NE,44,0.0,2.0,86,0.00,,OVC055,0.02,VWS V14.01,2013-04-27 16:00:00,
2013-04-27 12:03:00,55.1,51.0,30.34,NE,44,0.0,1.0,86,0.00,,OVC055,0.02,VWS V14.01,2013-04-27 16:03:00,
2013-04-27 12:08:00,55.0,50.9,30.34,NE,44,0.0,1.0,86,0.00,,OVC055,0.02,VWS V14.01,2013-04-27 16:08:00,
2013-04-27 12:13:00,55.1,51.3,30.34,NE,44,0.0,1.0,87,0.00,,OVC055,0.02,VWS V14.01,2013-04-27 16:13:00,
2013-04-27 12:18:00,55.1,51.6,30.34,NE,44,0.0,1.0,88,0.00,,OVC055,0.02,VWS V14.01,2013-04-27 16:18:00,
2013-04-27 12:23:00,55.1,51.6,30.34,NE,44,0.0,2.0,88,0.01,,OVC055,0.03,VWS V14.01,2013-04-27 16:23:00,
2013-04-27 12:28:00,54.9,52.0,30.33,ENE,66,0.0,2.0,90,0.01,,OVC055,0.03,VWS V14.01,2013-04-27 16:28:00,
2013-04-27 12:30:00,54.9,51.7,30.33,ENE,66,0.0,2.0,89,0.01,,OVC055,0.03,VWS V14.01,2013-04-27 16:30:00,
2013-04-27 12:33:00,54.7,52.1,30.34,ENE,66,0.0,0.0,91,0.01,,OVC055,0.03,VWS V14.01,2013-04-27 16:33:00,
2013-04-27 12:38:00,54.5,52.2,30.34,ENE,66,0.0,1.0,92,0.01,,OVC055,0.03,VWS V14.01,2013-04-27 16:38:00,
2013-04-27 12:43:00,54.4,52.4,30.35,ENE,66,0.0,1.0,93,0.01,,OVC055,0.03,VWS V14.01,2013-04-27 16:43:00,
2013-04-27 12:48:00,54.2,52.2,30.35,SSW,210,0.0,3.0,93,0.02,,OVC055,0.04,VWS V14.01,2013-04-27 16:48:00,
2013-04-27 12:53:00,54.0,52.3,30.35,SSW,210,0.0,3.0,94,0.04,,OVC055,0.06,VWS V14.01,2013-04-27 16:53:00,
2013-04-27 12:58:00,53.7,52.0,30.35,SSW,210,0.0,3.0,94,0.05,,OVC055,0.07,VWS V14.01,2013-04-27 16:58:00,
2013-04-27 13:00:00,53.6,51.9,30.35,SSW,210,0.0,3.0,94,0.05,,OVC055,0.07,VWS V14.01,2013-04-27 17:00:00,
2013-04-27 13:03:00,53.4,52.0,30.35,SSW,210,0.0,1.0,95,0.05,,OVC055,0.07,VWS V14.01,2013-04-27 17:03:00,
2013-04-27 13:08:00,53.2,51.8,30.35,SSW,209,0.0,1.0,95,0.07,,OVC055,0.09,VWS V14.01,2013-04-27 17:08:00,
2013-04-27 13:13:00,53.2,52.1,30.34,SSW,209,0.0,1.0,96,0.09,,OVC055,0.11,VWS V14.01,2013-04-27 17:13:00,
2013-04-27 13:18:00,53.2,52.4,30.34,SSW,209,1.0,1.0,97,0.11,,OVC055,0.13,VWS V14.01,2013-04-27 17:18:00,
2013-04-27 13:23:00,53.2,52.4,30.34,West,267,0.0,1.0,97,0.13,,OVC055,0.15,VWS V14.01,2013-04-27 17:23:00,
2013-04-27 13:28:00,53.3,52.5,30.34,West,267,1.0,2.0,97,0.14,,OVC055,0.16,VWS V14.01,2013-04-27 17:28:00,
2013-04-27 13:30:00,53.3,52.5,30.34,West,267,0.0,2.0,97,0.15,,OVC055,0.17,VWS V14.01,2013-04-27 17:30:00,
2013-04-27 13:33:00,53.3,52.5,30.35,West,267,1.0,1.0,97,0.15,,OVC055,0.18,VWS V14.01,2013-04-27 17:33:00,
2013-04-27 13:37:00,53.3,52.5,30.35,South,186,0.0,3.0,97,0.15,,OVC055,0.18,VWS V14.01,2013-04-27 17:37:00,
2013-04-27 13:42:00,53.2,52.1,30.35,WSW,257,0.0,3.0,96,0.16,,OVC055,0.19,VWS V14.01,2013-04-27 17:42:00,
2013-04-27 13:47:00,52.8,51.4,30.35,South,188,2.0,5.0,95,0.16,,OVC055,0.19,VWS V14.01,2013-04-27 17:47:00,
2013-04-27 13:52:00,52.6,51.2,30.34,South,190,3.0,5.0,95,0.19,,OVC055,0.22,VWS V14.01,2013-04-27 17:52:00,
2013-04-27 13:57:00,52.3,51.2,30.34,South,186,0.0,5.0,96,0.21,,OVC055,0.24,VWS V14.01,2013-04-27 17:57:00,
2013-04-27 14:00:00,52.3,51.2,30.34,South,186,0.0,5.0,96,0.22,,OVC055,0.25,VWS V14.01,2013-04-27 18:00:00,
2013-04-27 14:02:00,52.1,51.0,30.35,South,184,2.0,2.0,96,0.19,,OVC055,0.26,VWS V14.01,2013-04-27 18:02:00,
2013-04-27 14:07:00,51.9,50.8,30.35,WSW,238,2.0,3.0,96,0.21,,OVC055,0.28,VWS V14.01,2013-04-27 18:07:00,
2013-04-27 14:12:00,51.8,51.0,30.36,WSW,238,0.0,3.0,97,0.24,,OVC055,0.31,VWS V14.01,2013-04-27 18:12:00,
2013-04-27 14:17:00,51.6,50.8,30.34,SW,236,0.0,3.0,97,0.27,,OVC055,0.34,VWS V14.01,2013-04-27 18:17:00,
2013-04-27 14:22:00,51.5,50.7,30.34,SW,236,0.0,3.0,97,0.29,,OVC055,0.36,VWS V14.01,2013-04-27 18:22:00,
2013-04-27 14:27:00,51.3,50.5,30.34,SW,236,0.0,3.0,97,0.32,,OVC055,0.39,VWS V14.01,2013-04-27 18:27:00,
2013-04-27 14:30:00,51.3,50.5,30.34,SW,236,0.0,3.0,97,0.33,,OVC055,0.40,VWS V14.01,2013-04-27 18:30:00,
2013-04-27 14:32:00,51.2,50.4,30.35,SW,236,0.0,1.0,97,0.25,,OVC055,0.42,VWS V14.01,2013-04-27 18:32:00,
2013-04-27 14:37:00,51.2,50.4,30.35,SW,236,0.0,2.0,97,0.26,,OVC055,0.43,VWS V14.01,2013-04-27 18:37:00,
2013-04-27 14:42:00,51.0,50.2,30.34,SW,235,1.0,2.0,97,0.29,,OVC055,0.46,VWS V14.01,2013-04-27 18:42:00,
2013-04-27 14:47:00,50.9,50.1,30.34,SW,235,0.0,2.0,97,0.30,,OVC055,0.47,VWS V14.01,2013-04-27 18:47:00,
2013-04-27 14:52:00,51.0,50.5,30.34,SW,235,0.0,2.0,98,0.31,,OVC055,0.48,VWS V14.01,2013-04-27 18:52:00,
2013-04-27 14:57:00,51.0,50.5,30.35,SW,235,0.0,2.0,98,0.33,,OVC055,0.50,VWS V14.01,2013-04-27 18:57:00,
2013-04-27 15:00:00,51.1,50.6,30.34,SW,235,0.0,2.0,98,0.33,,OVC055,0.50,VWS V14.01,2013-04-27 19:00:00,
2013-04-27 15:02:00,51.2,50.7,30.34,SW,235,0.0,1.0,98,0.25,,OVC055,0.50,VWS V14.01,2013-04-27 19:02:00,
2013-04-27 15:07:00,51.2,50.7,30.34,SW,235,0.0,1.0,98,0.25,,OVC055,0.50,VWS V14.01,2013-04-27 19:07:00,
2013-04-27 15:12:00,51.4,50.9,30.34,SW,235,0.0,1.0,98,0.26,,OVC055,0.51,VWS V14.01,2013-04-27 19:12:00,
2013-04-27 15:17:00,51.6,51.1,30.33,SW,235,0.0,1.0,98,0.27,,OVC055,0.52,VWS V14.01,2013-04-27 19:17:00,
2013-04-27 15:22:00,51.7,51.4,30.33,SW,235,0.0,1.0,99,0.27,,OVC055,0.52,VWS V14.01,2013-04-27 19:22:00,
2013-04-27 15:27:00,51.7,51.2,30.33,SW,235,0.0,1.0,98,0.27,,OVC055,0.52,VWS V14.01,2013-04-27 19:27:00,
2013-04-27 15:30:00,51.7,51.2,30.33,SW,235,0.0,1.0,98,0.27,,OVC055,0.52,VWS V14.01,2013-04-27 19:30:00,
2013-04-27 15:32:00,51.8,51.3,30.33,SW,235,0.0,0.0,98,0.12,,OVC055,0.52,VWS V14.01,2013-04-27 19:32:00,
2013-04-27 15:37:00,51.7,50.9,30.33,SW,235,0.0,1.0,97,0.12,,OVC055,0.52,VWS V14.01,2013-04-27 19:37:00,
2013-04-27 15:42:00,51.6,50.8,30.32,SW,235,0.0,1.0,97,0.12,,OVC055,0.52,VWS V14.01,2013-04-27 19:42:00,
2013-04-27 15:47:00,51.6,50.8,30.32,SW,235,1.0,2.0,97,0.12,,OVC055,0.52,VWS V14.01,2013-04-27 19:47:00,
2013-04-27 15:52:00,51.6,50.8,30.32,SW,235,0.0,2.0,97,0.12,,OVC055,0.52,VWS V14.01,2013-04-27 19:52:00,
2013-04-27 15:57:00,51.6,50.8,30.32,SW,235,0.0,2.0,97,0.12,,OVC055,0.52,VWS V14.01,2013-04-27 19:57:00,
2013-04-27 16:00:00,51.6,50.8,30.32,SW,235,0.0,2.0,97,0.12,,OVC055,0.52,VWS V14.01,2013-04-27 20:00:00,
2013-04-27 16:02:00,51.7,51.2,30.32,SW,235,0.0,0.0,98,0.02,,OVC055,0.52,VWS V14.01,2013-04-27 20:02:00,
2013-04-27 16:07:00,51.8,51.3,30.33,SW,235,0.0,0.0,98,0.02,,OVC055,0.52,VWS V14.01,2013-04-27 20:07:00,
2013-04-27 16:12:00,51.8,51.0,30.32,SW,235,0.0,0.0,97,0.03,,OVC055,0.53,VWS V14.01,2013-04-27 20:12:00,
2013-04-27 16:17:00,51.7,50.9,30.32,SW,235,0.0,0.0,97,0.05,,OVC055,0.55,VWS V14.01,2013-04-27 20:17:00,
2013-04-27 16:22:00,51.7,50.9,30.32,SW,235,0.0,0.0,97,0.06,,OVC055,0.56,VWS V14.01,2013-04-27 20:22:00,
2013-04-27 16:27:00,51.4,50.6,30.32,SW,235,0.0,0.0,97,0.07,,OVC055,0.57,VWS V14.01,2013-04-27 20:27:00,
2013-04-27 16:30:00,51.5,50.7,30.32,SW,235,0.0,0.0,97,0.08,,OVC055,0.58,VWS V14.01,2013-04-27 20:30:00,
2013-04-27 16:32:00,51.5,50.7,30.32,SW,235,0.0,0.0,97,0.06,,OVC055,0.58,VWS V14.01,2013-04-27 20:32:00,
2013-04-27 16:37:00,51.4,50.6,30.31,SW,235,0.0,0.0,97,0.07,,OVC055,0.59,VWS V14.01,2013-04-27 20:37:00,
2013-04-27 16:42:00,51.4,50.6,30.31,SW,235,0.0,0.0,97,0.08,,OVC055,0.60,VWS V14.01,2013-04-27 20:42:00,
2013-04-27 16:47:00,51.3,50.5,30.30,SW,235,0.0,0.0,97,0.09,,OVC055,0.61,VWS V14.01,2013-04-27 20:47:00,
2013-04-27 16:52:00,51.2,50.7,30.30,SW,235,0.0,0.0,98,0.11,,OVC055,0.63,VWS V14.01,2013-04-27 20:52:00,
2013-04-27 16:57:00,51.2,50.7,30.30,SW,235,0.0,0.0,98,0.12,,OVC055,0.64,VWS V14.01,2013-04-27 20:57:00,
2013-04-27 17:00:00,51.2,50.7,30.30,SW,235,0.0,0.0,98,0.12,,OVC055,0.64,VWS V14.01,2013-04-27 21:00:00,
2013-04-27 17:02:00,51.3,50.8,30.30,SW,235,0.0,0.0,98,0.12,,OVC055,0.64,VWS V14.01,2013-04-27 21:02:00,
2013-04-27 17:07:00,51.4,50.9,30.29,SW,235,0.0,0.0,98,0.13,,OVC055,0.65,VWS V14.01,2013-04-27 21:07:00,
2013-04-27 17:12:00,51.4,50.9,30.29,SW,235,0.0,0.0,98,0.13,,OVC055,0.65,VWS V14.01,2013-04-27 21:12:00,
2013-04-27 17:17:00,51.4,50.9,30.28,SW,235,0.0,0.0,98,0.13,,OVC055,0.65,VWS V14.01,2013-04-27 21:17:00,
2013-04-27 17:22:00,51.5,51.0,30.28,SW,235,0.0,0.0,98,0.13,,OVC055,0.65,VWS V14.01,2013-04-27 21:22:00,
2013-04-27 17:27:00,51.6,51.1,30.28,SW,235,0.0,0.0,98,0.13,,OVC055,0.65,VWS V14.01,2013-04-27 21:27:00,
2013-04-27 17:30:00,51.5,51.0,30.28,SW,235,0.0,0.0,98,0.13,,OVC055,0.65,VWS V14.01,2013-04-27 21:30:00,
2013-04-27 17:32:00,51.5,51.0,30.29,SW,235,0.0,0.0,98,0.07,,OVC055,0.65,VWS V14.01,2013-04-27 21:32:00,
2013-04-27 17:37:00,51.6,51.1,30.29,SW,235,0.0,0.0,98,0.07,,OVC055,0.65,VWS V14.01,2013-04-27 21:37:00,
2013-04-27 17:42:00,51.6,51.1,30.29,SW,235,0.0,0.0,98,0.07,,OVC055,0.65,VWS V14.01,2013-04-27 21:42:00,
2013-04-27 17:47:00,51.7,51.2,30.30,SW,235,0.0,0.0,98,0.07,,OVC055,0.65,VWS V14.01,2013-04-27 21:47:00,
2013-04-27 17:52:00,51.7,51.2,30.30,SW,235,0.0,0.0,98,0.07,,OVC055,0.65,VWS V14.01,2013-04-27 21:52:00,
2013-04-27 17:57:00,51.8,51.3,30.30,SW,235,0.0,0.0,98,0.08,,OVC055,0.66,VWS V14.01,2013-04-27 21:57:00,
2013-04-27 18:00:00,51.8,51.3,30.30,SW,235,0.0,0.0,98,0.08,,OVC055,0.66,VWS V14.01,2013-04-27 22:00:00,
2013-04-27 18:02:00,51.8,51.3,30.31,SW,235,0.0,0.0,98,0.02,,OVC055,0.66,VWS V14.01,2013-04-27 22:02:00,
2013-04-27 18:07:00,51.8,51.3,30.30,SW,235,0.0,0.0,98,0.02,,OVC055,0.66,VWS V14.01,2013-04-27 22:07:00,
2013-04-27 18:12:00,51.8,51.3,30.31,SW,235,0.0,0.0,98,0.02,,OVC055,0.66,VWS V14.01,2013-04-27 22:12:00,
2013-04-27 18:17:00,51.8,51.3,30.31,SW,235,0.0,0.0,98,0.03,,OVC055,0.67,VWS V14.01,2013-04-27 22:17:00,
2013-04-27 18:22:00,51.7,51.2,30.31,SW,235,0.0,0.0,98,0.05,,OVC055,0.69,VWS V14.01,2013-04-27 22:22:00,
2013-04-27 18:27:00,51.5,51.0,30.31,SW,235,0.0,0.0,98,0.05,,OVC055,0.69,VWS V14.01,2013-04-27 22:27:00,
2013-04-27 18:30:00,51.4,50.9,30.31,SW,235,0.0,0.0,98,0.06,,OVC055,0.70,VWS V14.01,2013-04-27 22:30:00,
2013-04-27 18:32:00,51.4,50.9,30.31,SW,235,0.0,0.0,98,0.05,,OVC055,0.70,VWS V14.01,2013-04-27 22:32:00,
2013-04-27 18:37:00,51.2,50.7,30.31,SW,235,0.0,0.0,98,0.05,,OVC055,0.70,VWS V14.01,2013-04-27 22:37:00,
2013-04-27 18:42:00,51.2,50.7,30.31,SW,235,0.0,0.0,98,0.07,,OVC055,0.72,VWS V14.01,2013-04-27 22:42:00,
2013-04-27 18:47:00,51.1,50.6,30.31,SW,235,0.0,0.0,98,0.10,,OVC055,0.75,VWS V14.01,2013-04-27 22:47:00,
2013-04-27 18:52:00,51.0,50.5,30.31,SW,235,0.0,0.0,98,0.12,,OVC055,0.77,VWS V14.01,2013-04-27 22:52:00,
2013-04-27 18:57:00,51.0,50.7,30.31,SW,235,0.0,0.0,99,0.13,,OVC055,0.78,VWS V14.01,2013-04-27 22:57:00,
2013-04-27 19:00:00,51.0,50.7,30.31,SW,235,0.0,0.0,99,0.14,,OVC055,0.79,VWS V14.01,2013-04-27 23:00:00,
2013-04-27 19:02:00,51.0,50.7,30.31,SW,235,0.0,0.0,99,0.14,,OVC055,0.80,VWS V14.01,2013-04-27 23:02:00,
2013-04-27 19:07:00,50.8,50.5,30.31,SW,235,0.0,0.0,99,0.16,,OVC055,0.82,VWS V14.01,2013-04-27 23:07:00,
2013-04-27 19:12:00,50.6,50.1,30.31,SW,235,0.0,0.0,98,0.18,,OVC055,0.84,VWS V14.01,2013-04-27 23:12:00,
2013-04-27 19:17:00,50.6,50.3,30.30,SW,235,0.0,0.0,99,0.19,,OVC055,0.85,VWS V14.01,2013-04-27 23:17:00,
2013-04-27 19:22:00,50.6,50.3,30.29,SW,235,0.0,0.0,99,0.20,,OVC055,0.86,VWS V14.01,2013-04-27 23:22:00,
2013-04-27 19:27:00,50.6,50.3,30.28,SW,235,0.0,0.0,99,0.22,,OVC055,0.88,VWS V14.01,2013-04-27 23:27:00,
2013-04-27 19:30:00,50.6,50.3,30.27,SW,235,1.0,1.0,99,0.22,,OVC055,0.88,VWS V14.01,2013-04-27 23:30:00,
2013-04-27 19:32:00,50.6,50.3,30.29,SW,235,1.0,1.0,99,0.19,,OVC055,0.89,VWS V14.01,2013-04-27 23:32:00,
2013-04-27 19:37:00,50.6,50.3,30.30,NNW,348,2.0,4.0,99,0.20,,OVC055,0.90,VWS V14.01,2013-04-27 23:37:00,
2013-04-27 19:42:00,50.6,50.3,30.29,NNW,348,0.0,4.0,99,0.20,,OVC055,0.90,VWS V14.01,2013-04-27 23:42:00,
2013-04-27 19:47:00,50.5,50.2,30.28,NNW,347,0.0,4.0,99,0.20,,OVC055,0.90,VWS V14.01,2013-04-27 23:47:00,
2013-04-27 19:52:00,50.4,50.1,30.28,NNW,347,0.0,4.0,99,0.20,,OVC055,0.90,VWS V14.01,2013-04-27 23:52:00,
2013-04-27 19:57:00,50.4,50.1,30.28,NNW,347,0.0,4.0,99,0.20,,OVC055,0.90,VWS V14.01,2013-04-27 23:57:00,
2013-04-27 20:00:00,50.4,50.1,30.28,NNW,347,0.0,4.0,99,0.20,,OVC055,0.90,VWS V14.01,2013-04-28 00:00:00,
2013-04-27 20:02:00,50.4,50.1,30.28,NNW,347,0.0,0.0,99,0.11,,OVC055,0.90,VWS V14.01,2013-04-28 00:02:00,
2013-04-27 20:06:00,50.4,50.1,30.29,NNW,347,0.0,0.0,99,0.12,,OVC055,0.91,VWS V14.01,2013-04-28 00:06:00,
2013-04-27 20:11:00,50.4,50.1,30.28,NNW,347,0.0,0.0,99,0.12,,OVC055,0.91,VWS V14.01,2013-04-28 00:11:00,
2013-04-27 20:16:00,50.3,50.0,30.29,NNW,347,0.0,0.0,99,0.12,,OVC055,0.91,VWS V14.01,2013-04-28 00:16:00,
2013-04-27 20:21:00,50.3,50.0,30.28,NNW,347,0.0,0.0,99,0.12,,OVC055,0.91,VWS V14.01,2013-04-28 00:21:00,
2013-04-27 20:26:00,50.3,50.0,30.29,NNW,347,0.0,0.0,99,0.12,,OVC055,0.91,VWS V14.01,2013-04-28 00:26:00,
2013-04-27 20:30:00,50.3,50.0,30.29,NNW,347,0.0,0.0,99,0.12,,OVC055,0.91,VWS V14.01,2013-04-28 00:30:00,
2013-04-27 20:31:00,50.3,50.0,30.28,NNW,347,0.0,0.0,99,0.03,,OVC055,0.91,VWS V14.01,2013-04-28 00:31:00,
2013-04-27 20:36:00,50.2,49.9,30.28,NNW,347,0.0,0.0,99,0.03,,OVC055,0.91,VWS V14.01,2013-04-28 00:36:00,
2013-04-27 20:41:00,50.2,49.9,30.28,NNW,347,0.0,0.0,99,0.03,,OVC055,0.91,VWS V14.01,2013-04-28 00:41:00,
2013-04-27 20:46:00,50.2,49.9,30.28,NNW,347,0.0,0.0,99,0.04,,OVC055,0.92,VWS V14.01,2013-04-28 00:46:00,
2013-04-27 20:51:00,50.2,49.9,30.28,NNW,347,0.0,0.0,99,0.04,,OVC055,0.92,VWS V14.01,2013-04-28 00:51:00,
2013-04-27 20:56:00,50.2,49.9,30.28,NNW,347,0.0,0.0,99,0.04,,OVC055,0.92,VWS V14.01,2013-04-28 00:56:00,
2013-04-27 21:00:00,50.1,49.8,30.28,NNW,347,0.0,0.0,99,0.04,,OVC055,0.92,VWS V14.01,2013-04-28 01:00:00,
2013-04-27 21:01:00,50.1,49.8,30.28,NNW,347,0.0,0.0,99,0.02,,OVC055,0.92,VWS V14.01,2013-04-28 01:01:00,
2013-04-27 21:06:00,50.1,49.8,30.28,NNW,347,0.0,0.0,99,0.02,,OVC055,0.92,VWS V14.01,2013-04-28 01:06:00,
2013-04-27 21:11:00,50.2,49.9,30.28,NNW,347,0.0,0.0,99,0.02,,OVC055,0.92,VWS V14.01,2013-04-28 01:11:00,
2013-04-27 21:16:00,50.2,49.9,30.28,NNW,347,0.0,0.0,99,0.02,,OVC055,0.92,VWS V14.01,2013-04-28 01:16:00,
2013-04-27 21:21:00,50.1,49.8,30.28,NNW,347,0.0,0.0,99,0.02,,OVC055,0.92,VWS V14.01,2013-04-28 01:21:00,
2013-04-27 21:26:00,50.1,49.8,30.29,NNW,347,0.0,0.0,99,0.02,,OVC055,0.92,VWS V14.01,2013-04-28 01:26:00,
2013-04-27 21:30:00,50.1,49.8,30.29,NNW,347,0.0,0.0,99,0.02,,OVC055,0.92,VWS V14.01,2013-04-28 01:30:00,
2013-04-27 21:31:00,50.1,50.1,30.28,NNW,347,0.0,0.0,100,0.01,,OVC055,0.92,VWS V14.01,2013-04-28 01:31:00,
2013-04-27 21:36:00,50.1,50.1,30.28,NNW,347,0.0,0.0,100,0.01,,OVC055,0.92,VWS V14.01,2013-04-28 01:36:00,
2013-04-27 21:41:00,50.1,50.1,30.28,NNW,347,0.0,0.0,100,0.01,,OVC055,0.92,VWS V14.01,2013-04-28 01:41:00,
2013-04-27 21:46:00,50.1,50.1,30.28,NNW,347,0.0,0.0,100,0.01,,OVC055,0.92,VWS V14.01,2013-04-28 01:46:00,
2013-04-27 21:51:00,50.1,50.1,30.28,NNW,347,0.0,0.0,100,0.01,,OVC055,0.92,VWS V14.01,2013-04-28 01:51:00,
2013-04-27 21:56:00,50.1,50.1,30.28,NNW,347,0.0,0.0,100,0.01,,OVC055,0.92,VWS V14.01,2013-04-28 01:56:00,
2013-04-27 22:00:00,50.1,50.1,30.28,NNW,347,0.0,0.0,100,0.01,,OVC055,0.92,VWS V14.01,2013-04-28 02:00:00,
2013-04-27 22:01:00,50.1,50.1,30.28,NNW,347,0.0,0.0,100,0.00,,OVC055,0.92,VWS V14.01,2013-04-28 02:01:00,
2013-04-27 22:06:00,50.1,50.1,30.27,NNW,347,0.0,0.0,100,0.01,,OVC055,0.93,VWS V14.01,2013-04-28 02:06:00,
2013-04-27 22:11:00,50.1,50.1,30.27,NNW,347,0.0,0.0,100,0.01,,OVC055,0.93,VWS V14.01,2013-04-28 02:11:00,
2013-04-27 22:16:00,50.0,50.0,30.27,NNW,347,0.0,0.0,100,0.01,,OVC055,0.93,VWS V14.01,2013-04-28 02:16:00,
2013-04-27 22:21:00,50.0,50.0,30.27,NNW,347,0.0,0.0,100,0.01,,OVC055,0.93,VWS V14.01,2013-04-28 02:21:00,
2013-04-27 22:26:00,50.1,50.1,30.27,NNW,347,0.0,0.0,100,0.01,,OVC055,0.93,VWS V14.01,2013-04-28 02:26:00,
2013-04-27 22:30:00,50.1,50.1,30.27,NNW,347,0.0,0.0,100,0.01,,OVC055,0.93,VWS V14.01,2013-04-28 02:30:00,
2013-04-27 22:31:00,50.0,50.0,30.27,NNW,347,0.0,0.0,100,0.01,,OVC055,0.93,VWS V14.01,2013-04-28 02:31:00,
2013-04-27 22:36:00,50.0,50.0,30.27,NNW,347,0.0,0.0,100,0.01,,OVC055,0.93,VWS V14.01,2013-04-28 02:36:00,
2013-04-27 22:41:00,50.1,50.1,30.27,NNW,347,0.0,0.0,100,0.01,,OVC055,0.93,VWS V14.01,2013-04-28 02:41:00,
2013-04-27 22:46:00,50.1,50.1,30.27,NNW,347,0.0,0.0,100,0.01,,OVC055,0.93,VWS V14.01,2013-04-28 02:46:00,
2013-04-27 22:51:00,50.1,50.1,30.27,NNW,347,0.0,0.0,100,0.01,,OVC055,0.93,VWS V14.01,2013-04-28 02:51:00,
2013-04-27 22:56:00,50.1,50.1,30.27,NNW,347,0.0,1.0,100,0.01,,OVC055,0.93,VWS V14.01,2013-04-28 02:56:00,
2013-04-27 23:00:00,50.1,50.1,30.27,NNW,347,0.0,1.0,100,0.01,,OVC055,0.93,VWS V14.01,2013-04-28 03:00:00,
2013-04-27 23:01:00,50.1,50.1,30.27,NNW,347,0.0,0.0,100,0.01,,OVC055,0.93,VWS V14.01,2013-04-28 03:01:00,
2013-04-27 23:06:00,50.1,50.1,30.27,NNW,347,0.0,0.0,100,0.01,,OVC055,0.93,VWS V14.01,2013-04-28 03:06:00,
2013-04-27 23:11:00,50.2,50.2,30.27,NNW,347,0.0,0.0,100,0.01,,OVC055,0.93,VWS V14.01,2013-04-28 03:11:00,
2013-04-27 23:16:00,50.1,50.1,30.28,NNW,347,0.0,0.0,100,0.01,,OVC055,0.93,VWS V14.01,2013-04-28 03:16:00,
2013-04-27 23:21:00,50.1,50.1,30.27,NNW,347,0.0,0.0,100,0.01,,OVC055,0.93,VWS V14.01,2013-04-28 03:21:00,
2013-04-27 23:26:00,50.1,50.1,30.27,NNW,347,0.0,0.0,100,0.01,,OVC055,0.93,VWS V14.01,2013-04-28 03:26:00,
2013-04-27 23:30:00,50.1,50.1,30.27,NNW,347,0.0,0.0,100,0.01,,OVC055,0.93,VWS V14.01,2013-04-28 03:30:00,
2013-04-27 23:31:00,50.1,50.1,30.27,NNW,347,0.0,0.0,100,0.00,,OVC055,0.93,VWS V14.01,2013-04-28 03:31:00,
2013-04-27 23:36:00,50.1,50.1,30.27,NNW,347,0.0,0.0,100,0.00,,OVC055,0.93,VWS V14.01,2013-04-28 03:36:00,
2013-04-27 23:41:00,50.1,50.1,30.27,NNW,347,0.0,0.0,100,0.00,,OVC055,0.93,VWS V14.01,2013-04-28 03:41:00,
2013-04-27 23:46:00,50.1,50.1,30.27,NNW,347,0.0,0.0,100,0.00,,OVC055,0.93,VWS V14.01,2013-04-28 03:46:00,
2013-04-27 23:51:00,50.1,50.1,30.27,NNW,347,0.0,0.0,100,0.00,,OVC055,0.93,VWS V14.01,2013-04-28 03:51:00,
2013-04-27 23:56:00,50.1,50.1,30.27,NNW,347,0.0,0.0,100,0.01,,OVC055,0.94,VWS V14.01,2013-04-28 03:56:00,